sensor_id;sensor_type;location;lat;lon;timestamp;temperature;humidity
4435;DHT22;46552;52.150;8.428;2024-01-15T00:01:00;2.30;99.90
4435;DHT22;46552;52.150;8.428;2024-01-15T00:03:27;2.30;99.90
4435;DHT22;46552;52.150;8.428;2024-01-15T00:05:56;2.30;99.90
4435;DHT22;46552;52.150;8.428;2024-01-15T00:08:23;2.40;99.90
4435;DHT22;46552;52.150;8.428;2024-01-15T00:10:51;2.30;99.90
4435;DHT22;46552;52.150;8.428;2024-01-15T00:13:18;2.30;99.90
4435;DHT22;46552;52.150;8.428;2024-01-15T00:15:45;2.30;99.90
4435;DHT22;46552;52.150;8.428;2024-01-15T00:18:12;2.30;99.90
4435;DHT22;46552;52.150;8.428;2024-01-15T00:20:39;2.30;99.90
4435;DHT22;46552;52.150;8.428;2024-01-15T00:23:08;2.30;99.90
4435;DHT22;46552;52.150;8.428;2024-01-15T00:25:35;2.40;99.90
4435;DHT22;46552;52.150;8.428;2024-01-15T00:28:02;2.30;99.90
4435;DHT22;46552;52.150;8.428;2024-01-15T00:30:29;2.30;99.90
4435;DHT22;46552;52.150;8.428;2024-01-15T00:32:56;2.30;99.90
4435;DHT22;46552;52.150;8.428;2024-01-15T00:35:25;2.30;99.90
4435;DHT22;46552;52.150;8.428;2024-01-15T00:37:52;2.30;99.90
4435;DHT22;46552;52.150;8.428;2024-01-15T00:40:20;2.20;99.90
4435;DHT22;46552;52.150;8.428;2024-01-15T00:42:48;2.20;99.90
4435;DHT22;46552;52.150;8.428;2024-01-15T00:45:15;2.20;99.90
4435;DHT22;46552;52.150;8.428;2024-01-15T00:47:42;2.20;99.90
4435;DHT22;46552;52.150;8.428;2024-01-15T00:50:10;2.20;99.90
4435;DHT22;46552;52.150;8.428;2024-01-15T00:52:38;2.30;99.90
4435;DHT22;46552;52.150;8.428;2024-01-15T00:55:06;2.30;99.90
4435;DHT22;46552;52.150;8.428;2024-01-15T00:57:35;2.30;99.90
4435;DHT22;46552;52.150;8.428;2024-01-15T01:00:02;2.30;99.90
4435;DHT22;46552;52.150;8.428;2024-01-15T01:02:30;2.30;99.90
4435;DHT22;46552;52.150;8.428;2024-01-15T01:04:57;2.30;99.90
4435;DHT22;46552;52.150;8.428;2024-01-15T01:07:25;2.20;99.90
4435;DHT22;46552;52.150;8.428;2024-01-15T01:09:52;2.20;99.90
4435;DHT22;46552;52.150;8.428;2024-01-15T01:12:19;2.20;99.90
4435;DHT22;46552;52.150;8.428;2024-01-15T01:14:48;2.20;99.90
4435;DHT22;46552;52.150;8.428;2024-01-15T01:17:15;2.20;99.90
4435;DHT22;46552;52.150;8.428;2024-01-15T01:19:42;2.20;99.90
4435;DHT22;46552;52.150;8.428;2024-01-15T01:22:11;2.30;99.90
4435;DHT22;46552;52.150;8.428;2024-01-15T01:24:38;2.30;99.90
4435;DHT22;46552;52.150;8.428;2024-01-15T01:27:06;2.30;99.90
4435;DHT22;46552;52.150;8.428;2024-01-15T01:29:35;2.30;99.90
4435;DHT22;46552;52.150;8.428;2024-01-15T01:32:04;2.40;99.90
4435;DHT22;46552;52.150;8.428;2024-01-15T01:34:33;2.30;99.90
4435;DHT22;46552;52.150;8.428;2024-01-15T01:37:06;2.40;99.90
4435;DHT22;46552;52.150;8.428;2024-01-15T01:39:34;2.40;99.90
4435;DHT22;46552;52.150;8.428;2024-01-15T01:42:01;2.40;99.90
4435;DHT22;46552;52.150;8.428;2024-01-15T01:44:28;2.40;99.90
4435;DHT22;46552;52.150;8.428;2024-01-15T01:46:56;2.30;99.90
4435;DHT22;46552;52.150;8.428;2024-01-15T01:49:26;2.30;99.90
4435;DHT22;46552;52.150;8.428;2024-01-15T01:51:54;2.30;99.90
4435;DHT22;46552;52.150;8.428;2024-01-15T01:54:23;2.30;99.90
4435;DHT22;46552;52.150;8.428;2024-01-15T01:56:51;2.30;99.90
4435;DHT22;46552;52.150;8.428;2024-01-15T01:59:19;2.30;99.90
4435;DHT22;46552;52.150;8.428;2024-01-15T02:01:46;2.30;99.90
4435;DHT22;46552;52.150;8.428;2024-01-15T02:04:15;2.20;99.90
4435;DHT22;46552;52.150;8.428;2024-01-15T02:06:44;2.20;99.90
4435;DHT22;46552;52.150;8.428;2024-01-15T02:09:11;2.20;99.90
4435;DHT22;46552;52.150;8.428;2024-01-15T02:11:40;2.20;99.90
4435;DHT22;46552;52.150;8.428;2024-01-15T02:14:09;2.20;99.90
4435;DHT22;46552;52.150;8.428;2024-01-15T02:16:36;2.20;99.90
4435;DHT22;46552;52.150;8.428;2024-01-15T02:19:03;2.20;99.90
4435;DHT22;46552;52.150;8.428;2024-01-15T02:21:31;2.20;99.90
4435;DHT22;46552;52.150;8.428;2024-01-15T02:24:00;2.20;99.90
4435;DHT22;46552;52.150;8.428;2024-01-15T02:26:27;2.30;99.90
4435;DHT22;46552;52.150;8.428;2024-01-15T02:28:55;2.20;99.90
4435;DHT22;46552;52.150;8.428;2024-01-15T02:31:23;2.20;99.90
4435;DHT22;46552;52.150;8.428;2024-01-15T02:33:50;2.20;99.90
4435;DHT22;46552;52.150;8.428;2024-01-15T02:36:17;2.20;99.90
4435;DHT22;46552;52.150;8.428;2024-01-15T02:38:44;2.20;99.90
4435;DHT22;46552;52.150;8.428;2024-01-15T02:41:12;2.30;99.90
4435;DHT22;46552;52.150;8.428;2024-01-15T02:43:40;2.30;99.90
4435;DHT22;46552;52.150;8.428;2024-01-15T02:46:07;2.20;99.90
4435;DHT22;46552;52.150;8.428;2024-01-15T02:48:35;2.20;99.90
4435;DHT22;46552;52.150;8.428;2024-01-15T02:51:03;2.20;99.90
4435;DHT22;46552;52.150;8.428;2024-01-15T02:53:30;2.20;99.90
4435;DHT22;46552;52.150;8.428;2024-01-15T02:55:57;2.20;99.90
4435;DHT22;46552;52.150;8.428;2024-01-15T02:58:27;2.20;99.90
4435;DHT22;46552;52.150;8.428;2024-01-15T03:00:55;2.20;99.90
4435;DHT22;46552;52.150;8.428;2024-01-15T03:03:23;2.20;99.90
4435;DHT22;46552;52.150;8.428;2024-01-15T03:05:50;2.20;99.90
4435;DHT22;46552;52.150;8.428;2024-01-15T03:08:17;2.30;99.90
4435;DHT22;46552;52.150;8.428;2024-01-15T03:10:44;2.30;99.90
4435;DHT22;46552;52.150;8.428;2024-01-15T03:13:12;2.30;99.90
4435;DHT22;46552;52.150;8.428;2024-01-15T03:15:41;2.30;99.90
4435;DHT22;46552;52.150;8.428;2024-01-15T03:18:08;2.30;99.90
4435;DHT22;46552;52.150;8.428;2024-01-15T03:20:35;2.30;99.90
4435;DHT22;46552;52.150;8.428;2024-01-15T03:23:03;2.30;99.90
4435;DHT22;46552;52.150;8.428;2024-01-15T03:25:30;2.30;99.90
4435;DHT22;46552;52.150;8.428;2024-01-15T03:27:57;2.30;99.90
4435;DHT22;46552;52.150;8.428;2024-01-15T03:30:24;2.30;99.90
4435;DHT22;46552;52.150;8.428;2024-01-15T03:32:54;2.30;99.90
4435;DHT22;46552;52.150;8.428;2024-01-15T03:35:22;2.30;99.90
4435;DHT22;46552;52.150;8.428;2024-01-15T03:37:49;2.30;99.90
4435;DHT22;46552;52.150;8.428;2024-01-15T03:40:17;2.30;99.90
4435;DHT22;46552;52.150;8.428;2024-01-15T03:42:44;2.30;99.90
4435;DHT22;46552;52.150;8.428;2024-01-15T03:45:11;2.30;99.90
4435;DHT22;46552;52.150;8.428;2024-01-15T03:47:39;2.30;99.90
4435;DHT22;46552;52.150;8.428;2024-01-15T03:50:08;2.30;99.90
4435;DHT22;46552;52.150;8.428;2024-01-15T03:52:36;2.40;99.90
4435;DHT22;46552;52.150;8.428;2024-01-15T03:55:05;2.30;99.90
4435;DHT22;46552;52.150;8.428;2024-01-15T03:57:32;2.30;99.90
4435;DHT22;46552;52.150;8.428;2024-01-15T03:59:59;2.30;99.90
4435;DHT22;46552;52.150;8.428;2024-01-15T04:02:26;2.30;99.90
4435;DHT22;46552;52.150;8.428;2024-01-15T04:04:53;2.40;99.90
4435;DHT22;46552;52.150;8.428;2024-01-15T04:07:21;2.40;99.90
4435;DHT22;46552;52.150;8.428;2024-01-15T04:09:48;2.40;99.90
4435;DHT22;46552;52.150;8.428;2024-01-15T04:12:16;2.40;99.90
4435;DHT22;46552;52.150;8.428;2024-01-15T04:14:43;2.40;99.90
4435;DHT22;46552;52.150;8.428;2024-01-15T04:17:10;2.40;99.90
4435;DHT22;46552;52.150;8.428;2024-01-15T04:19:37;2.40;99.90
4435;DHT22;46552;52.150;8.428;2024-01-15T04:22:04;2.40;99.90
4435;DHT22;46552;52.150;8.428;2024-01-15T04:24:34;2.30;99.90
4435;DHT22;46552;52.150;8.428;2024-01-15T04:27:01;2.30;99.90
4435;DHT22;46552;52.150;8.428;2024-01-15T04:29:28;2.40;99.90
4435;DHT22;46552;52.150;8.428;2024-01-15T04:31:55;2.40;99.90
4435;DHT22;46552;52.150;8.428;2024-01-15T04:34:22;2.40;99.90
4435;DHT22;46552;52.150;8.428;2024-01-15T04:36:49;2.40;99.90
4435;DHT22;46552;52.150;8.428;2024-01-15T04:39:17;2.40;99.90
4435;DHT22;46552;52.150;8.428;2024-01-15T04:41:45;2.40;99.90
4435;DHT22;46552;52.150;8.428;2024-01-15T04:44:13;2.40;99.90
4435;DHT22;46552;52.150;8.428;2024-01-15T04:46:42;2.50;99.90
4435;DHT22;46552;52.150;8.428;2024-01-15T04:49:09;2.40;99.90
4435;DHT22;46552;52.150;8.428;2024-01-15T04:51:36;2.40;99.90
4435;DHT22;46552;52.150;8.428;2024-01-15T04:54:04;2.40;99.90
4435;DHT22;46552;52.150;8.428;2024-01-15T04:56:31;2.40;99.90
4435;DHT22;46552;52.150;8.428;2024-01-15T04:59:00;2.40;99.90
4435;DHT22;46552;52.150;8.428;2024-01-15T05:01:31;2.40;99.90
4435;DHT22;46552;52.150;8.428;2024-01-15T05:03:58;2.40;99.90
4435;DHT22;46552;52.150;8.428;2024-01-15T05:06:26;2.40;99.90
4435;DHT22;46552;52.150;8.428;2024-01-15T05:08:53;2.40;99.90
4435;DHT22;46552;52.150;8.428;2024-01-15T05:11:20;2.40;99.90
4435;DHT22;46552;52.150;8.428;2024-01-15T05:13:48;2.40;99.90
4435;DHT22;46552;52.150;8.428;2024-01-15T05:16:16;2.40;99.90
4435;DHT22;46552;52.150;8.428;2024-01-15T05:18:43;2.50;99.90
4435;DHT22;46552;52.150;8.428;2024-01-15T05:21:11;2.40;99.90
4435;DHT22;46552;52.150;8.428;2024-01-15T05:23:39;2.40;99.90
4435;DHT22;46552;52.150;8.428;2024-01-15T05:26:06;2.40;99.90
4435;DHT22;46552;52.150;8.428;2024-01-15T05:28:34;2.40;99.90
4435;DHT22;46552;52.150;8.428;2024-01-15T05:31:02;2.40;99.90
4435;DHT22;46552;52.150;8.428;2024-01-15T05:33:31;2.40;99.90
4435;DHT22;46552;52.150;8.428;2024-01-15T05:35:58;2.40;99.90
4435;DHT22;46552;52.150;8.428;2024-01-15T05:38:25;2.40;99.90
4435;DHT22;46552;52.150;8.428;2024-01-15T05:40:52;2.30;99.90
4435;DHT22;46552;52.150;8.428;2024-01-15T05:43:20;2.30;99.90
4435;DHT22;46552;52.150;8.428;2024-01-15T05:45:48;2.30;99.90
4435;DHT22;46552;52.150;8.428;2024-01-15T05:48:16;2.30;99.90
4435;DHT22;46552;52.150;8.428;2024-01-15T05:50:45;2.30;99.90
4435;DHT22;46552;52.150;8.428;2024-01-15T05:53:12;2.30;99.90
4435;DHT22;46552;52.150;8.428;2024-01-15T05:55:41;2.30;99.90
4435;DHT22;46552;52.150;8.428;2024-01-15T05:58:08;2.30;99.90
4435;DHT22;46552;52.150;8.428;2024-01-15T06:00:35;2.30;99.90
4435;DHT22;46552;52.150;8.428;2024-01-15T06:03:04;2.30;99.90
4435;DHT22;46552;52.150;8.428;2024-01-15T06:05:31;2.30;99.90
4435;DHT22;46552;52.150;8.428;2024-01-15T06:08:00;2.30;99.90
4435;DHT22;46552;52.150;8.428;2024-01-15T06:10:27;2.30;99.90
4435;DHT22;46552;52.150;8.428;2024-01-15T06:12:54;2.20;99.90
4435;DHT22;46552;52.150;8.428;2024-01-15T06:15:21;2.30;99.90
4435;DHT22;46552;52.150;8.428;2024-01-15T06:17:48;2.20;99.90
4435;DHT22;46552;52.150;8.428;2024-01-15T06:20:16;2.20;99.90
4435;DHT22;46552;52.150;8.428;2024-01-15T06:22:43;2.20;99.90
4435;DHT22;46552;52.150;8.428;2024-01-15T06:25:12;2.20;99.90
4435;DHT22;46552;52.150;8.428;2024-01-15T06:27:39;2.20;99.90
4435;DHT22;46552;52.150;8.428;2024-01-15T06:30:07;2.20;99.90
4435;DHT22;46552;52.150;8.428;2024-01-15T06:32:34;2.20;99.90
4435;DHT22;46552;52.150;8.428;2024-01-15T06:35:01;2.30;99.90
4435;DHT22;46552;52.150;8.428;2024-01-15T06:37:29;2.30;99.90
4435;DHT22;46552;52.150;8.428;2024-01-15T06:39:58;2.30;99.90
4435;DHT22;46552;52.150;8.428;2024-01-15T06:42:26;2.30;99.90
4435;DHT22;46552;52.150;8.428;2024-01-15T06:44:54;2.30;99.90
4435;DHT22;46552;52.150;8.428;2024-01-15T06:47:21;2.30;99.90
4435;DHT22;46552;52.150;8.428;2024-01-15T06:49:48;2.30;99.90
4435;DHT22;46552;52.150;8.428;2024-01-15T06:52:16;2.30;99.90
4435;DHT22;46552;52.150;8.428;2024-01-15T06:54:43;2.30;99.90
4435;DHT22;46552;52.150;8.428;2024-01-15T06:57:10;2.30;99.90
4435;DHT22;46552;52.150;8.428;2024-01-15T06:59:39;2.30;99.90
4435;DHT22;46552;52.150;8.428;2024-01-15T07:02:06;2.30;99.90
4435;DHT22;46552;52.150;8.428;2024-01-15T07:04:33;2.30;99.90
4435;DHT22;46552;52.150;8.428;2024-01-15T07:07:01;2.30;99.90
4435;DHT22;46552;52.150;8.428;2024-01-15T07:09:29;2.30;99.90
4435;DHT22;46552;52.150;8.428;2024-01-15T07:11:56;2.30;99.90
4435;DHT22;46552;52.150;8.428;2024-01-15T07:14:23;2.30;99.90
4435;DHT22;46552;52.150;8.428;2024-01-15T07:16:52;2.40;99.90
4435;DHT22;46552;52.150;8.428;2024-01-15T07:19:19;2.40;99.90
4435;DHT22;46552;52.150;8.428;2024-01-15T07:21:47;2.40;99.90
4435;DHT22;46552;52.150;8.428;2024-01-15T07:24:14;2.40;99.90
4435;DHT22;46552;52.150;8.428;2024-01-15T07:26:41;2.40;99.90
4435;DHT22;46552;52.150;8.428;2024-01-15T07:29:08;2.40;99.90
4435;DHT22;46552;52.150;8.428;2024-01-15T07:31:36;2.40;99.90
4435;DHT22;46552;52.150;8.428;2024-01-15T07:34:06;2.30;99.90
4435;DHT22;46552;52.150;8.428;2024-01-15T07:36:33;2.30;99.90
4435;DHT22;46552;52.150;8.428;2024-01-15T07:39:00;2.30;99.90
4435;DHT22;46552;52.150;8.428;2024-01-15T07:41:27;2.30;99.90
4435;DHT22;46552;52.150;8.428;2024-01-15T07:43:55;2.20;99.90
4435;DHT22;46552;52.150;8.428;2024-01-15T07:46:22;2.20;99.90
4435;DHT22;46552;52.150;8.428;2024-01-15T07:48:50;2.20;99.90
4435;DHT22;46552;52.150;8.428;2024-01-15T07:51:23;2.30;99.90
4435;DHT22;46552;52.150;8.428;2024-01-15T07:53:50;2.20;99.90
4435;DHT22;46552;52.150;8.428;2024-01-15T07:56:17;2.20;99.90
4435;DHT22;46552;52.150;8.428;2024-01-15T07:58:45;2.20;99.90
4435;DHT22;46552;52.150;8.428;2024-01-15T08:01:12;2.30;99.90
4435;DHT22;46552;52.150;8.428;2024-01-15T08:03:39;2.30;99.90
4435;DHT22;46552;52.150;8.428;2024-01-15T08:06:07;2.30;99.90
4435;DHT22;46552;52.150;8.428;2024-01-15T08:08:37;2.30;99.90
4435;DHT22;46552;52.150;8.428;2024-01-15T08:11:04;2.40;99.90
4435;DHT22;46552;52.150;8.428;2024-01-15T08:13:31;2.30;99.90
4435;DHT22;46552;52.150;8.428;2024-01-15T08:15:59;2.40;99.90
4435;DHT22;46552;52.150;8.428;2024-01-15T08:18:26;2.40;99.90
4435;DHT22;46552;52.150;8.428;2024-01-15T08:20:53;2.40;99.90
4435;DHT22;46552;52.150;8.428;2024-01-15T08:23:21;2.30;99.90
4435;DHT22;46552;52.150;8.428;2024-01-15T08:25:49;2.30;99.90
4435;DHT22;46552;52.150;8.428;2024-01-15T08:28:16;2.30;99.90
4435;DHT22;46552;52.150;8.428;2024-01-15T08:30:43;2.40;99.90
4435;DHT22;46552;52.150;8.428;2024-01-15T08:33:11;2.30;99.90
4435;DHT22;46552;52.150;8.428;2024-01-15T08:35:38;2.40;99.90
4435;DHT22;46552;52.150;8.428;2024-01-15T08:38:06;2.40;99.90
4435;DHT22;46552;52.150;8.428;2024-01-15T08:40:33;2.40;99.90
4435;DHT22;46552;52.150;8.428;2024-01-15T08:43:02;2.40;99.90
4435;DHT22;46552;52.150;8.428;2024-01-15T08:45:30;2.40;99.90
4435;DHT22;46552;52.150;8.428;2024-01-15T08:47:57;2.40;99.90
4435;DHT22;46552;52.150;8.428;2024-01-15T08:50:24;2.40;99.90
4435;DHT22;46552;52.150;8.428;2024-01-15T08:52:52;2.40;99.90
4435;DHT22;46552;52.150;8.428;2024-01-15T08:55:20;2.40;99.90
4435;DHT22;46552;52.150;8.428;2024-01-15T08:57:48;2.40;99.90
4435;DHT22;46552;52.150;8.428;2024-01-15T09:00:17;2.30;99.90
4435;DHT22;46552;52.150;8.428;2024-01-15T09:02:44;2.30;99.90
4435;DHT22;46552;52.150;8.428;2024-01-15T09:05:12;2.30;99.90
4435;DHT22;46552;52.150;8.428;2024-01-15T09:07:40;2.30;99.90
4435;DHT22;46552;52.150;8.428;2024-01-15T09:10:08;2.40;99.90
4435;DHT22;46552;52.150;8.428;2024-01-15T09:12:36;2.20;99.90
4435;DHT22;46552;52.150;8.428;2024-01-15T09:15:05;2.20;99.90
4435;DHT22;46552;52.150;8.428;2024-01-15T09:17:35;2.20;99.90
4435;DHT22;46552;52.150;8.428;2024-01-15T09:20:02;2.20;99.90
4435;DHT22;46552;52.150;8.428;2024-01-15T09:22:31;2.20;99.90
4435;DHT22;46552;52.150;8.428;2024-01-15T09:24:59;2.30;99.90
4435;DHT22;46552;52.150;8.428;2024-01-15T09:27:26;2.30;99.90
4435;DHT22;46552;52.150;8.428;2024-01-15T09:29:54;2.30;99.90
4435;DHT22;46552;52.150;8.428;2024-01-15T09:32:21;2.30;99.90
4435;DHT22;46552;52.150;8.428;2024-01-15T09:34:50;2.30;99.90
4435;DHT22;46552;52.150;8.428;2024-01-15T09:37:18;2.30;99.90
4435;DHT22;46552;52.150;8.428;2024-01-15T09:39:45;2.30;99.90
4435;DHT22;46552;52.150;8.428;2024-01-15T09:42:14;2.50;99.90
4435;DHT22;46552;52.150;8.428;2024-01-15T09:44:42;2.60;99.90
4435;DHT22;46552;52.150;8.428;2024-01-15T09:47:11;2.70;99.90
4435;DHT22;46552;52.150;8.428;2024-01-15T09:49:39;2.70;99.90
4435;DHT22;46552;52.150;8.428;2024-01-15T09:52:08;2.70;99.90
4435;DHT22;46552;52.150;8.428;2024-01-15T09:54:36;2.70;99.90
4435;DHT22;46552;52.150;8.428;2024-01-15T09:57:04;3.00;99.90
4435;DHT22;46552;52.150;8.428;2024-01-15T09:59:31;3.50;99.90
4435;DHT22;46552;52.150;8.428;2024-01-15T10:02:00;3.80;99.90
4435;DHT22;46552;52.150;8.428;2024-01-15T10:04:27;3.80;99.90
4435;DHT22;46552;52.150;8.428;2024-01-15T10:06:56;3.80;99.90
4435;DHT22;46552;52.150;8.428;2024-01-15T10:09:26;3.60;99.90
4435;DHT22;46552;52.150;8.428;2024-01-15T10:11:54;3.40;99.90
4435;DHT22;46552;52.150;8.428;2024-01-15T10:14:21;3.30;99.90
4435;DHT22;46552;52.150;8.428;2024-01-15T10:16:48;3.10;99.90
4435;DHT22;46552;52.150;8.428;2024-01-15T10:19:16;3.00;99.90
4435;DHT22;46552;52.150;8.428;2024-01-15T10:21:43;3.00;99.90
4435;DHT22;46552;52.150;8.428;2024-01-15T10:24:12;2.90;99.90
4435;DHT22;46552;52.150;8.428;2024-01-15T10:26:40;2.90;99.90
4435;DHT22;46552;52.150;8.428;2024-01-15T10:29:07;3.20;99.90
4435;DHT22;46552;52.150;8.428;2024-01-15T10:31:38;3.40;99.90
4435;DHT22;46552;52.150;8.428;2024-01-15T10:34:11;3.40;99.90
4435;DHT22;46552;52.150;8.428;2024-01-15T10:36:41;3.30;99.90
4435;DHT22;46552;52.150;8.428;2024-01-15T10:39:08;3.30;99.90
4435;DHT22;46552;52.150;8.428;2024-01-15T10:41:37;3.30;99.90
4435;DHT22;46552;52.150;8.428;2024-01-15T10:44:06;3.20;99.90
4435;DHT22;46552;52.150;8.428;2024-01-15T10:46:34;3.10;99.90
4435;DHT22;46552;52.150;8.428;2024-01-15T10:49:02;3.00;99.90
4435;DHT22;46552;52.150;8.428;2024-01-15T10:51:30;3.10;99.90
4435;DHT22;46552;52.150;8.428;2024-01-15T10:53:59;3.10;99.90
4435;DHT22;46552;52.150;8.428;2024-01-15T10:56:27;3.10;99.90
4435;DHT22;46552;52.150;8.428;2024-01-15T10:58:57;3.20;99.90
4435;DHT22;46552;52.150;8.428;2024-01-15T11:01:27;3.10;99.90
4435;DHT22;46552;52.150;8.428;2024-01-15T11:03:55;3.10;99.90
4435;DHT22;46552;52.150;8.428;2024-01-15T11:06:24;3.10;99.90
4435;DHT22;46552;52.150;8.428;2024-01-15T11:08:55;3.10;99.90
4435;DHT22;46552;52.150;8.428;2024-01-15T11:11:22;3.10;99.90
4435;DHT22;46552;52.150;8.428;2024-01-15T11:13:49;3.10;99.90
4435;DHT22;46552;52.150;8.428;2024-01-15T11:16:18;3.10;99.90
4435;DHT22;46552;52.150;8.428;2024-01-15T11:19:02;3.00;99.90
4435;DHT22;46552;52.150;8.428;2024-01-15T11:21:31;3.10;99.90
4435;DHT22;46552;52.150;8.428;2024-01-15T11:23:59;3.10;99.90
4435;DHT22;46552;52.150;8.428;2024-01-15T11:26:28;3.10;99.90
4435;DHT22;46552;52.150;8.428;2024-01-15T11:28:56;3.10;99.90
4435;DHT22;46552;52.150;8.428;2024-01-15T11:31:27;3.00;99.90
4435;DHT22;46552;52.150;8.428;2024-01-15T11:33:54;3.00;99.90
4435;DHT22;46552;52.150;8.428;2024-01-15T11:37:01;3.00;99.90
4435;DHT22;46552;52.150;8.428;2024-01-15T11:39:42;3.10;99.90
4435;DHT22;46552;52.150;8.428;2024-01-15T11:42:11;3.10;99.90
4435;DHT22;46552;52.150;8.428;2024-01-15T11:44:38;3.10;99.90
4435;DHT22;46552;52.150;8.428;2024-01-15T11:47:06;3.20;99.90
4435;DHT22;46552;52.150;8.428;2024-01-15T11:49:56;3.20;99.90
4435;DHT22;46552;52.150;8.428;2024-01-15T11:52:33;3.20;99.90
4435;DHT22;46552;52.150;8.428;2024-01-15T11:55:06;3.30;99.90
4435;DHT22;46552;52.150;8.428;2024-01-15T11:57:41;3.30;99.90
4435;DHT22;46552;52.150;8.428;2024-01-15T12:00:12;3.40;99.90
4435;DHT22;46552;52.150;8.428;2024-01-15T12:02:39;3.30;99.90
4435;DHT22;46552;52.150;8.428;2024-01-15T12:05:08;3.40;99.90
4435;DHT22;46552;52.150;8.428;2024-01-15T12:07:39;3.40;99.90
4435;DHT22;46552;52.150;8.428;2024-01-15T12:10:11;3.40;99.90
4435;DHT22;46552;52.150;8.428;2024-01-15T12:12:53;3.30;99.90
4435;DHT22;46552;52.150;8.428;2024-01-15T12:15:21;3.30;99.90
4435;DHT22;46552;52.150;8.428;2024-01-15T12:17:49;3.20;99.90
4435;DHT22;46552;52.150;8.428;2024-01-15T12:20:17;3.20;99.90
4435;DHT22;46552;52.150;8.428;2024-01-15T12:22:46;3.10;99.90
4435;DHT22;46552;52.150;8.428;2024-01-15T12:25:13;3.10;99.90
4435;DHT22;46552;52.150;8.428;2024-01-15T12:27:41;3.10;99.90
4435;DHT22;46552;52.150;8.428;2024-01-15T12:30:11;3.10;99.90
4435;DHT22;46552;52.150;8.428;2024-01-15T12:32:40;3.00;99.90
4435;DHT22;46552;52.150;8.428;2024-01-15T12:35:07;3.00;99.90
4435;DHT22;46552;52.150;8.428;2024-01-15T12:37:36;3.10;99.90
4435;DHT22;46552;52.150;8.428;2024-01-15T12:40:06;3.00;99.90
4435;DHT22;46552;52.150;8.428;2024-01-15T12:42:35;3.10;99.90
4435;DHT22;46552;52.150;8.428;2024-01-15T12:45:03;3.30;99.90
4435;DHT22;46552;52.150;8.428;2024-01-15T12:47:32;3.30;99.90
4435;DHT22;46552;52.150;8.428;2024-01-15T12:49:59;3.30;99.90
4435;DHT22;46552;52.150;8.428;2024-01-15T12:52:27;3.30;99.90
4435;DHT22;46552;52.150;8.428;2024-01-15T12:54:54;3.30;99.90
4435;DHT22;46552;52.150;8.428;2024-01-15T12:57:23;3.30;99.90
4435;DHT22;46552;52.150;8.428;2024-01-15T12:59:50;3.20;99.90
4435;DHT22;46552;52.150;8.428;2024-01-15T13:02:18;3.20;99.90
4435;DHT22;46552;52.150;8.428;2024-01-15T13:04:45;3.30;99.90
4435;DHT22;46552;52.150;8.428;2024-01-15T13:07:12;3.20;99.90
4435;DHT22;46552;52.150;8.428;2024-01-15T13:09:39;3.30;99.90
4435;DHT22;46552;52.150;8.428;2024-01-15T13:12:07;3.30;99.90
4435;DHT22;46552;52.150;8.428;2024-01-15T13:14:35;3.40;99.90
4435;DHT22;46552;52.150;8.428;2024-01-15T13:17:03;3.40;99.90
4435;DHT22;46552;52.150;8.428;2024-01-15T13:19:31;3.40;99.90
4435;DHT22;46552;52.150;8.428;2024-01-15T13:21:59;3.40;99.90
4435;DHT22;46552;52.150;8.428;2024-01-15T13:24:27;3.40;99.90
4435;DHT22;46552;52.150;8.428;2024-01-15T13:26:55;3.30;99.90
4435;DHT22;46552;52.150;8.428;2024-01-15T13:29:22;3.20;99.90
4435;DHT22;46552;52.150;8.428;2024-01-15T13:31:51;3.30;99.90
4435;DHT22;46552;52.150;8.428;2024-01-15T13:34:19;3.20;99.90
4435;DHT22;46552;52.150;8.428;2024-01-15T13:36:46;3.20;99.90
4435;DHT22;46552;52.150;8.428;2024-01-15T13:39:15;3.10;99.90
4435;DHT22;46552;52.150;8.428;2024-01-15T13:41:45;3.10;99.90
4435;DHT22;46552;52.150;8.428;2024-01-15T13:44:13;3.00;99.90
4435;DHT22;46552;52.150;8.428;2024-01-15T13:46:40;3.00;99.90
4435;DHT22;46552;52.150;8.428;2024-01-15T13:49:09;3.10;99.90
4435;DHT22;46552;52.150;8.428;2024-01-15T13:51:36;3.00;99.90
4435;DHT22;46552;52.150;8.428;2024-01-15T13:54:04;3.00;99.90
4435;DHT22;46552;52.150;8.428;2024-01-15T13:56:31;3.00;99.90
4435;DHT22;46552;52.150;8.428;2024-01-15T13:58:59;3.10;99.90
4435;DHT22;46552;52.150;8.428;2024-01-15T14:01:26;3.10;99.90
4435;DHT22;46552;52.150;8.428;2024-01-15T14:03:54;3.00;99.90
4435;DHT22;46552;52.150;8.428;2024-01-15T14:06:22;2.90;99.90
4435;DHT22;46552;52.150;8.428;2024-01-15T14:08:50;2.90;99.90
4435;DHT22;46552;52.150;8.428;2024-01-15T14:11:17;2.90;99.90
4435;DHT22;46552;52.150;8.428;2024-01-15T14:13:45;2.90;99.90
4435;DHT22;46552;52.150;8.428;2024-01-15T14:16:13;2.90;99.90
4435;DHT22;46552;52.150;8.428;2024-01-15T14:18:40;2.90;99.90
4435;DHT22;46552;52.150;8.428;2024-01-15T14:21:07;2.90;99.90
4435;DHT22;46552;52.150;8.428;2024-01-15T14:23:36;2.80;99.90
4435;DHT22;46552;52.150;8.428;2024-01-15T14:26:04;2.80;99.90
4435;DHT22;46552;52.150;8.428;2024-01-15T14:28:31;2.80;99.90
4435;DHT22;46552;52.150;8.428;2024-01-15T14:30:59;2.80;99.90
4435;DHT22;46552;52.150;8.428;2024-01-15T14:33:27;2.80;99.90
4435;DHT22;46552;52.150;8.428;2024-01-15T14:35:54;2.80;99.90
4435;DHT22;46552;52.150;8.428;2024-01-15T14:38:21;2.70;99.90
4435;DHT22;46552;52.150;8.428;2024-01-15T14:40:50;2.70;99.90
4435;DHT22;46552;52.150;8.428;2024-01-15T14:43:18;2.70;99.90
4435;DHT22;46552;52.150;8.428;2024-01-15T14:45:45;2.70;99.90
4435;DHT22;46552;52.150;8.428;2024-01-15T14:48:12;2.70;99.90
4435;DHT22;46552;52.150;8.428;2024-01-15T14:50:40;2.60;99.90
4435;DHT22;46552;52.150;8.428;2024-01-15T14:53:07;2.60;99.90
4435;DHT22;46552;52.150;8.428;2024-01-15T14:55:34;2.70;99.90
4435;DHT22;46552;52.150;8.428;2024-01-15T14:58:03;2.70;99.90
4435;DHT22;46552;52.150;8.428;2024-01-15T15:00:32;2.70;99.90
4435;DHT22;46552;52.150;8.428;2024-01-15T15:02:59;2.80;99.90
4435;DHT22;46552;52.150;8.428;2024-01-15T15:05:28;2.70;99.90
4435;DHT22;46552;52.150;8.428;2024-01-15T15:07:57;2.80;99.90
4435;DHT22;46552;52.150;8.428;2024-01-15T15:10:25;2.80;99.90
4435;DHT22;46552;52.150;8.428;2024-01-15T15:12:54;2.80;99.90
4435;DHT22;46552;52.150;8.428;2024-01-15T15:15:23;2.80;99.90
4435;DHT22;46552;52.150;8.428;2024-01-15T15:17:51;2.80;99.90
4435;DHT22;46552;52.150;8.428;2024-01-15T15:20:18;2.80;99.90
4435;DHT22;46552;52.150;8.428;2024-01-15T15:22:46;2.80;99.90
4435;DHT22;46552;52.150;8.428;2024-01-15T15:25:13;2.80;99.90
4435;DHT22;46552;52.150;8.428;2024-01-15T15:27:40;2.90;99.90
4435;DHT22;46552;52.150;8.428;2024-01-15T15:30:08;2.80;99.90
4435;DHT22;46552;52.150;8.428;2024-01-15T15:32:37;2.80;99.90
4435;DHT22;46552;52.150;8.428;2024-01-15T15:35:05;2.80;99.90
4435;DHT22;46552;52.150;8.428;2024-01-15T15:37:35;2.80;99.90
4435;DHT22;46552;52.150;8.428;2024-01-15T15:40:04;2.80;99.90
4435;DHT22;46552;52.150;8.428;2024-01-15T15:42:34;2.70;99.90
4435;DHT22;46552;52.150;8.428;2024-01-15T15:45:01;2.70;99.90
4435;DHT22;46552;52.150;8.428;2024-01-15T15:47:29;2.80;99.90
4435;DHT22;46552;52.150;8.428;2024-01-15T15:49:57;2.80;99.90
4435;DHT22;46552;52.150;8.428;2024-01-15T15:52:25;2.70;99.90
4435;DHT22;46552;52.150;8.428;2024-01-15T15:54:52;2.70;99.90
4435;DHT22;46552;52.150;8.428;2024-01-15T15:57:20;2.70;99.90
4435;DHT22;46552;52.150;8.428;2024-01-15T15:59:48;2.70;99.90
4435;DHT22;46552;52.150;8.428;2024-01-15T16:02:16;2.60;99.90
4435;DHT22;46552;52.150;8.428;2024-01-15T16:04:44;2.60;99.90
4435;DHT22;46552;52.150;8.428;2024-01-15T16:07:13;2.60;99.90